createdAt,value
2022-08-03T00:00:32.731Z,3.40
2022-08-03T00:03:01.570Z,3.53
2022-08-03T00:05:29.162Z,2.92
2022-08-03T00:07:56.712Z,3.38
2022-08-03T00:10:24.188Z,2.95
2022-08-03T00:12:51.840Z,3.58
2022-08-03T00:15:20.012Z,3.42
2022-08-03T00:20:22.197Z,3.55
2022-08-03T00:22:50.476Z,3.53
2022-08-03T00:25:18.154Z,3.17
2022-08-03T00:27:48.342Z,3.22
2022-08-03T00:30:16.844Z,3.20
2022-08-03T00:32:45.567Z,4.45
2022-08-03T00:35:32.562Z,3.00
2022-08-03T00:38:00.929Z,2.97
2022-08-03T00:40:28.926Z,2.88
2022-08-03T00:43:00.123Z,2.80
2022-08-03T00:45:33.081Z,3.03
2022-08-03T00:48:01.691Z,3.05
2022-08-03T00:50:34.632Z,3.47
2022-08-03T00:53:05.881Z,3.15
2022-08-03T00:55:35.897Z,3.30
2022-08-03T00:58:06.662Z,3.35
2022-08-03T01:00:38.909Z,3.60
2022-08-03T01:03:09.171Z,3.50
2022-08-03T01:05:52.181Z,3.63
2022-08-03T01:08:58.897Z,3.25
2022-08-03T01:12:00.555Z,2.85
2022-08-03T01:17:44.911Z,2.78
2022-08-03T01:20:18.491Z,3.17
2022-08-03T01:23:23.052Z,2.70
2022-08-03T01:26:40.098Z,3.35
2022-08-03T01:29:45.004Z,3.97
2022-08-03T01:32:59.231Z,3.95
2022-08-03T01:35:14.462Z,4.00
2022-08-03T01:37:52.934Z,3.78
2022-08-03T01:40:24.294Z,3.22
2022-08-03T01:42:55.778Z,3.55
2022-08-03T01:47:54.171Z,5.10
2022-08-03T01:50:29.113Z,5.07
2022-08-03T01:52:59.377Z,3.95
2022-08-03T01:55:31.963Z,3.78
2022-08-03T01:58:06.268Z,3.90
2022-08-03T02:00:38.578Z,4.03
2022-08-03T02:03:08.463Z,4.28
2022-08-03T02:05:37.899Z,3.72
2022-08-03T02:08:12.918Z,4.18
2022-08-03T02:10:43.135Z,4.00
2022-08-03T02:13:11.263Z,4.07
2022-08-03T02:15:41.379Z,3.30
2022-08-03T02:18:11.574Z,3.70
2022-08-03T02:20:42.960Z,4.68
2022-08-03T02:23:10.514Z,4.15
2022-08-03T02:25:53.810Z,4.55
2022-08-03T02:28:29.539Z,3.92
2022-08-03T02:31:04.806Z,4.43
2022-08-03T02:33:38.889Z,3.97
2022-08-03T02:36:08.418Z,4.30
2022-08-03T02:38:41.074Z,3.53
2022-08-03T02:41:17.007Z,4.40
2022-08-03T02:44:05.621Z,4.80
2022-08-03T02:46:41.374Z,4.72
2022-08-03T02:49:49.575Z,4.53
2022-08-03T02:52:02.870Z,5.32
2022-08-03T02:54:33.916Z,4.53
2022-08-03T02:57:03.137Z,5.18
2022-08-03T02:59:32.235Z,4.72
2022-08-03T03:02:03.171Z,5.00
2022-08-03T03:04:33.210Z,5.32
2022-08-03T03:07:04.365Z,4.97
2022-08-03T03:09:41.712Z,5.43
2022-08-03T03:12:13.866Z,4.93
2022-08-03T03:14:42.029Z,4.37
2022-08-03T03:17:11.821Z,4.32
2022-08-03T03:19:41.342Z,4.57
2022-08-03T03:22:10.742Z,4.75
2022-08-03T03:24:41.634Z,5.25
2022-08-03T03:27:09.605Z,4.53
2022-08-03T03:29:39.561Z,4.80
2022-08-03T03:32:08.445Z,5.40
2022-08-03T03:34:37.510Z,5.05
2022-08-03T03:37:05.885Z,5.43
2022-08-03T03:39:33.454Z,5.30
2022-08-03T03:42:01.232Z,5.10
2022-08-03T03:44:30.117Z,5.25
2022-08-03T03:46:58.653Z,4.80
2022-08-03T03:49:26.963Z,5.57
2022-08-03T03:51:55.810Z,5.35
2022-08-03T03:54:25.500Z,5.53
2022-08-03T03:56:56.856Z,6.22
2022-08-03T03:59:24.284Z,5.82
2022-08-03T04:01:58.540Z,5.38
2022-08-03T04:04:45.670Z,6.30
2022-08-03T04:07:31.632Z,6.47
2022-08-03T04:10:18.450Z,6.68
2022-08-03T04:12:51.122Z,6.68
2022-08-03T04:15:26.045Z,6.45
2022-08-03T04:17:58.922Z,6.47
2022-08-03T04:20:35.284Z,6.38
2022-08-03T04:23:04.697Z,6.40
2022-08-03T04:25:43.489Z,6.32
2022-08-03T04:28:30.707Z,6.50
2022-08-03T04:31:04.174Z,6.55
2022-08-03T04:33:36.087Z,6.10
2022-08-03T04:36:09.463Z,5.90
2022-08-03T04:38:49.402Z,5.82
2022-08-03T04:41:18.314Z,6.28
2022-08-03T04:43:49.133Z,6.28
2022-08-03T04:46:18.436Z,7.43
2022-08-03T04:48:46.445Z,6.57
2022-08-03T04:51:15.058Z,6.65
2022-08-03T04:53:44.445Z,5.97
2022-08-03T04:56:12.373Z,6.50
2022-08-03T04:58:40.160Z,6.18
2022-08-03T05:01:07.843Z,6.32
2022-08-03T05:03:35.667Z,6.30
2022-08-03T05:06:11.453Z,5.95
2022-08-03T05:08:46.411Z,7.00
2022-08-03T05:11:16.426Z,6.35
2022-08-03T05:13:45.448Z,5.68
2022-08-03T05:16:14.516Z,6.55
2022-08-03T05:18:43.127Z,5.78
2022-08-03T05:21:14.039Z,5.85
2022-08-03T05:23:41.457Z,6.03
2022-08-03T05:26:08.959Z,5.45
2022-08-03T05:28:38.542Z,5.55
2022-08-03T05:31:06.095Z,5.80
2022-08-03T05:33:33.694Z,5.20
2022-08-03T05:36:04.171Z,5.18
2022-08-03T05:38:34.979Z,6.57
2022-08-03T05:41:21.125Z,5.47
2022-08-03T05:43:55.401Z,5.20
2022-08-03T05:48:52.477Z,5.95
2022-08-03T05:51:19.991Z,6.18
2022-08-03T05:53:47.576Z,6.00
2022-08-03T05:56:16.603Z,6.03
2022-08-03T05:58:48.411Z,5.88
2022-08-03T06:03:45.964Z,5.97
2022-08-03T06:06:13.773Z,6.25
2022-08-03T06:08:43.233Z,5.57
2022-08-03T06:11:11.219Z,5.28
2022-08-03T06:13:39.123Z,6.03
2022-08-03T06:16:06.875Z,6.05
2022-08-03T06:18:36.716Z,6.03
2022-08-03T06:21:14.831Z,5.57
2022-08-03T06:23:53.450Z,6.00
2022-08-03T06:26:26.148Z,5.30
2022-08-03T06:28:54.970Z,4.80
2022-08-03T06:31:25.891Z,4.38
2022-08-03T06:34:32.732Z,4.50
2022-08-03T06:36:41.065Z,4.35
2022-08-03T06:39:08.542Z,3.83
2022-08-03T06:41:37.414Z,3.60
2022-08-03T06:44:10.419Z,3.30
2022-08-03T06:46:37.977Z,3.17
2022-08-03T06:49:06.973Z,3.40
2022-08-03T06:52:04.147Z,2.97
2022-08-03T06:54:22.344Z,3.10
2022-08-03T06:56:50.469Z,3.55
2022-08-03T07:00:09.848Z,2.50
2022-08-03T07:02:07.518Z,2.95
2022-08-03T07:04:36.245Z,3.35
2022-08-03T07:07:03.841Z,3.10
2022-08-03T07:09:32.457Z,3.42
2022-08-03T07:12:02.306Z,2.80
2022-08-03T07:14:29.737Z,2.63
2022-08-03T07:16:58.611Z,2.88
2022-08-03T07:19:26.087Z,3.15
2022-08-03T07:21:53.721Z,3.13
2022-08-03T07:24:21.966Z,2.92
2022-08-03T07:26:49.388Z,2.47
2022-08-03T07:29:16.949Z,2.85
2022-08-03T07:31:44.509Z,3.13
2022-08-03T07:34:19.960Z,2.42
2022-08-03T07:36:47.473Z,2.42
2022-08-03T07:39:16.544Z,2.53
2022-08-03T07:41:46.609Z,2.23
2022-08-03T07:44:14.559Z,2.33
2022-08-03T07:46:42.017Z,2.53
2022-08-03T07:49:09.749Z,2.50
2022-08-03T07:51:37.385Z,2.70
2022-08-03T07:54:05.351Z,2.90
2022-08-03T07:56:32.783Z,2.38
2022-08-03T07:59:00.436Z,1.80
2022-08-03T08:01:27.925Z,2.00
2022-08-03T08:03:55.566Z,2.03
2022-08-03T08:06:23.029Z,1.73
2022-08-03T08:08:50.552Z,1.70
2022-08-03T08:11:18.024Z,2.00
2022-08-03T08:13:45.487Z,1.98
2022-08-03T08:16:12.922Z,2.33
2022-08-03T08:18:40.363Z,2.20
2022-08-03T08:21:08.686Z,2.13
2022-08-03T08:23:42.278Z,2.20
2022-08-03T08:26:13.468Z,2.13
2022-08-03T08:28:41.192Z,2.35
2022-08-03T08:31:08.616Z,2.58
2022-08-03T08:34:01.356Z,2.55
2022-08-03T08:36:24.271Z,2.13
2022-08-03T08:38:52.774Z,2.00
2022-08-03T08:41:20.223Z,2.15
2022-08-03T08:43:47.736Z,1.98
2022-08-03T08:46:22.744Z,2.40
2022-08-03T08:48:53.593Z,1.70
2022-08-03T08:51:22.665Z,2.25
2022-08-03T08:53:53.862Z,2.67
2022-08-03T08:56:25.784Z,1.65
2022-08-03T08:58:59.110Z,2.05
2022-08-03T09:01:27.675Z,2.03
2022-08-03T09:03:55.479Z,2.10
2022-08-03T09:06:24.654Z,2.20
2022-08-03T09:08:52.262Z,2.05
2022-08-03T09:11:53.461Z,2.05
2022-08-03T09:14:39.234Z,2.33
2022-08-03T09:17:05.169Z,2.38
2022-08-03T09:19:35.116Z,2.60
2022-08-03T09:22:18.588Z,2.33
2022-08-03T09:25:23.799Z,2.17
2022-08-03T09:27:52.057Z,2.30
2022-08-03T09:30:34.066Z,2.20
2022-08-03T09:33:09.275Z,1.60
2022-08-03T09:35:57.309Z,2.03
2022-08-03T09:38:28.808Z,1.92
2022-08-03T09:41:00.355Z,2.28
2022-08-03T09:43:28.769Z,2.22
2022-08-03T09:46:05.144Z,2.42
2022-08-03T09:48:37.250Z,2.35
2022-08-03T09:51:13.517Z,1.83
2022-08-03T09:53:58.773Z,2.85
2022-08-03T09:56:40.681Z,2.30
2022-08-03T09:59:10.349Z,2.10
2022-08-03T10:01:41.759Z,1.70
2022-08-03T10:04:14.912Z,2.58
2022-08-03T10:06:46.248Z,2.20
2022-08-03T10:09:16.750Z,1.85
2022-08-03T10:11:46.918Z,2.00
2022-08-03T10:14:20.919Z,1.90
2022-08-03T10:16:49.416Z,2.03
2022-08-03T10:19:17.480Z,2.40
2022-08-03T10:21:55.984Z,2.45
2022-08-03T10:24:30.698Z,2.58
2022-08-03T10:27:08.010Z,2.00
2022-08-03T10:29:45.316Z,2.55
2022-08-03T10:32:24.178Z,2.42
2022-08-03T10:35:12.349Z,2.90
2022-08-03T10:38:01.654Z,2.72
2022-08-03T10:40:48.216Z,2.83
2022-08-03T10:43:27.642Z,2.65
2022-08-03T10:45:56.403Z,2.10
2022-08-03T10:48:26.367Z,3.10
2022-08-03T10:50:54.690Z,2.63
2022-08-03T10:53:47.727Z,3.08
2022-08-03T10:56:50.919Z,3.15
2022-08-03T10:59:46.366Z,3.20
2022-08-03T11:02:15.547Z,3.10
2022-08-03T11:04:44.749Z,3.15
2022-08-03T11:07:22.404Z,2.78
2022-08-03T11:09:53.829Z,2.70
2022-08-03T11:12:30.154Z,2.40
2022-08-03T11:15:07.631Z,2.60
2022-08-03T11:17:46.252Z,3.10
2022-08-03T11:20:46.816Z,2.72
2022-08-03T11:23:16.638Z,2.88
2022-08-03T11:28:41.495Z,2.70
2022-08-03T11:31:49.187Z,2.72
2022-08-03T11:34:17.805Z,2.50
2022-08-03T11:37:27.561Z,2.78
2022-08-03T11:39:57.687Z,2.83
2022-08-03T11:42:26.226Z,3.17
2022-08-03T11:45:00.059Z,2.95
2022-08-03T11:47:30.083Z,3.90
2022-08-03T11:50:02.026Z,2.60
2022-08-03T11:52:39.798Z,2.90
2022-08-03T11:55:13.421Z,3.30
2022-08-03T11:59:10.623Z,2.55
2022-08-03T12:00:32.517Z,2.78
2022-08-03T12:05:54.970Z,2.63
2022-08-03T12:08:28.278Z,2.33
2022-08-03T12:11:00.018Z,2.55
2022-08-03T12:14:45.595Z,2.15
2022-08-03T12:16:53.755Z,2.25
2022-08-03T12:19:21.209Z,1.67
2022-08-03T12:21:56.819Z,2.45
2022-08-03T12:24:28.383Z,1.77
2022-08-03T12:29:28.010Z,2.17
2022-08-03T12:31:56.318Z,2.38
2022-08-03T12:34:24.051Z,2.40
2022-08-03T12:36:55.955Z,2.20
2022-08-03T12:39:31.059Z,2.78
2022-08-03T12:41:58.724Z,2.10
2022-08-03T12:44:35.639Z,2.30
2022-08-03T12:47:06.620Z,2.80
2022-08-03T12:49:49.133Z,2.53
2022-08-03T12:52:19.225Z,2.53
2022-08-03T12:55:01.011Z,2.70
2022-08-03T12:57:42.993Z,2.10
2022-08-03T13:00:21.591Z,2.20
2022-08-03T13:03:38.914Z,1.60
2022-08-03T13:05:52.098Z,1.92
2022-08-03T13:08:24.106Z,1.98
2022-08-03T13:10:51.873Z,1.55
2022-08-03T13:13:39.131Z,1.92
2022-08-03T13:16:07.688Z,2.03
2022-08-03T13:18:35.193Z,1.88
2022-08-03T13:21:02.774Z,1.60
2022-08-03T13:23:36.150Z,1.80
2022-08-03T13:26:03.591Z,1.73
2022-08-03T13:28:31.166Z,2.30
2022-08-03T13:30:59.830Z,1.60
2022-08-03T13:33:28.827Z,1.70
2022-08-03T13:35:56.764Z,1.70
2022-08-03T13:38:27.214Z,2.00
2022-08-03T13:40:55.980Z,1.75
2022-08-03T13:43:23.509Z,2.00
2022-08-03T13:45:53.691Z,1.85
2022-08-03T13:48:36.150Z,1.60
2022-08-03T13:51:21.696Z,1.60
2022-08-03T13:53:52.193Z,1.63
2022-08-03T13:56:19.767Z,2.07
2022-08-03T13:58:47.317Z,2.05
2022-08-03T14:01:16.236Z,1.92
2022-08-03T14:03:43.936Z,1.83
2022-08-03T14:06:11.456Z,2.13
2022-08-03T14:08:39.222Z,1.95
2022-08-03T14:11:07.386Z,2.03
2022-08-03T14:13:35.106Z,2.30
2022-08-03T14:16:02.740Z,2.28
2022-08-03T14:18:33.896Z,2.03
2022-08-03T14:21:06.693Z,1.77
2022-08-03T14:23:37.660Z,2.03
2022-08-03T14:26:07.212Z,2.15
2022-08-03T14:28:35.977Z,1.65
2022-08-03T14:31:04.187Z,1.70
2022-08-03T14:33:36.334Z,1.90
2022-08-03T14:36:04.638Z,1.55
2022-08-03T14:38:32.187Z,1.80
2022-08-03T14:40:59.687Z,2.10
2022-08-03T14:43:27.324Z,1.90
2022-08-03T14:46:01.818Z,1.67
2022-08-03T14:50:29.165Z,2.00
2022-08-03T14:51:16.976Z,1.90
2022-08-03T14:53:44.646Z,1.70
2022-08-03T14:56:12.137Z,2.28
2022-08-03T14:58:39.741Z,1.98
2022-08-03T15:02:04.828Z,2.13
2022-08-03T15:03:55.306Z,1.77
2022-08-03T15:06:22.862Z,2.28
2022-08-03T15:09:13.826Z,1.50
2022-08-03T15:11:38.560Z,2.20
2022-08-03T15:14:09.175Z,1.63
2022-08-03T15:16:38.859Z,1.85
2022-08-03T15:20:01.595Z,2.30
2022-08-03T15:21:54.214Z,2.22
2022-08-03T15:24:21.699Z,1.85
2022-08-03T15:26:50.444Z,2.15
2022-08-03T15:30:08.998Z,2.20
2022-08-03T15:32:09.480Z,1.60
2022-08-03T15:34:38.386Z,2.13
2022-08-03T15:37:16.284Z,1.60
2022-08-03T15:39:59.558Z,1.80
2022-08-03T15:42:30.397Z,1.90
2022-08-03T15:44:58.482Z,1.97
2022-08-03T15:47:26.444Z,1.92
2022-08-03T15:49:54.116Z,1.95
2022-08-03T15:52:21.681Z,2.08
2022-08-03T15:54:49.566Z,1.80
2022-08-03T15:57:17.074Z,1.70
2022-08-03T15:59:44.668Z,1.60
2022-08-03T16:02:12.230Z,1.75
2022-08-03T16:04:39.801Z,1.80
2022-08-03T16:07:07.247Z,1.65
2022-08-03T16:09:43.165Z,1.70
2022-08-03T16:12:14.471Z,1.70
2022-08-03T16:14:52.705Z,1.30
2022-08-03T16:17:22.588Z,2.15
2022-08-03T16:19:53.412Z,1.50
2022-08-03T16:22:24.496Z,1.63
2022-08-03T16:24:55.185Z,1.63
2022-08-03T16:27:37.028Z,2.10
2022-08-03T16:30:16.584Z,1.70
2022-08-03T16:32:45.806Z,1.90
2022-08-03T16:35:19.861Z,1.65
2022-08-03T16:37:56.091Z,1.55
2022-08-03T16:40:26.100Z,1.80
2022-08-03T16:42:54.111Z,1.50
2022-08-03T16:45:21.783Z,1.48
2022-08-03T16:48:01.758Z,1.40
2022-08-03T16:50:35.394Z,1.45
2022-08-03T16:53:16.248Z,1.60
2022-08-03T16:55:51.891Z,1.67
2022-08-03T16:58:24.297Z,1.38
2022-08-03T17:01:10.771Z,1.63
2022-08-03T17:04:02.283Z,1.27
2022-08-03T17:06:38.049Z,1.67
2022-08-03T17:09:21.105Z,1.50
2022-08-03T17:11:51.195Z,1.65
2022-08-03T17:14:29.306Z,1.50
2022-08-03T17:17:01.545Z,1.40
2022-08-03T17:19:32.627Z,1.40
2022-08-03T17:22:10.969Z,1.70
2022-08-03T17:24:44.709Z,1.90
2022-08-03T17:28:48.123Z,1.90
2022-08-03T17:30:12.001Z,1.40
2022-08-03T17:32:56.774Z,1.60
2022-08-03T17:35:38.694Z,1.73
2022-08-03T17:38:11.929Z,2.13
2022-08-03T17:40:50.035Z,1.88
2022-08-03T17:44:12.789Z,2.25
2022-08-03T17:46:10.924Z,2.17
2022-08-03T17:48:41.551Z,2.17
2022-08-03T17:51:20.360Z,2.38
2022-08-03T17:54:18.347Z,2.20
2022-08-03T17:57:27.184Z,2.28
2022-08-03T18:00:25.815Z,2.35
2022-08-03T18:03:15.224Z,2.47
2022-08-03T18:06:10.929Z,2.30
2022-08-03T18:10:04.349Z,2.35
2022-08-03T18:12:05.248Z,2.88
2022-08-03T18:14:57.935Z,2.70
2022-08-03T18:17:55.129Z,2.17
2022-08-03T18:20:32.890Z,2.20
2022-08-03T18:23:06.987Z,2.13
2022-08-03T18:25:44.977Z,2.40
2022-08-03T18:28:18.761Z,2.00
2022-08-03T18:30:54.326Z,2.27
2022-08-03T18:34:19.337Z,2.67
2022-08-03T18:36:21.843Z,2.90
2022-08-03T18:41:32.697Z,2.70
2022-08-03T18:44:07.901Z,2.85
2022-08-03T18:47:18.481Z,2.90
2022-08-03T18:50:19.219Z,2.85
2022-08-03T18:56:02.816Z,2.75
2022-08-03T18:59:02.491Z,3.10
2022-08-03T19:02:00.946Z,2.70
2022-08-03T19:04:46.579Z,4.97
2022-08-03T19:07:25.947Z,3.88
2022-08-03T19:09:59.298Z,3.03
2022-08-03T19:12:52.365Z,3.25
2022-08-03T19:15:36.813Z,3.15
2022-08-03T19:18:16.133Z,3.08
2022-08-03T19:20:46.753Z,3.55
2022-08-03T19:23:15.703Z,3.17
2022-08-03T19:25:44.508Z,4.05
2022-08-03T19:28:12.039Z,3.58
2022-08-03T19:30:40.640Z,5.07
2022-08-03T19:33:15.757Z,2.92
2022-08-03T19:35:55.116Z,4.20
2022-08-03T19:38:27.555Z,3.95
2022-08-03T19:41:02.193Z,4.90
2022-08-03T19:43:52.604Z,3.60
2022-08-03T19:46:30.645Z,4.22
2022-08-03T19:49:14.796Z,5.72
2022-08-03T19:52:01.597Z,4.60
2022-08-03T19:54:52.970Z,4.07
2022-08-03T19:59:57.447Z,5.33
2022-08-03T20:02:26.802Z,4.78
2022-08-03T20:04:57.099Z,4.47
2022-08-03T20:07:27.435Z,3.90
2022-08-03T20:09:56.662Z,3.80
2022-08-03T20:12:31.248Z,3.45
2022-08-03T20:15:00.959Z,4.00
2022-08-03T20:17:54.832Z,4.85
2022-08-03T20:20:27.333Z,6.75
2022-08-03T20:22:57.997Z,5.93
2022-08-03T20:25:37.571Z,3.90
2022-08-03T20:28:14.098Z,3.60
2022-08-03T20:30:47.148Z,3.50
2022-08-03T20:33:18.719Z,3.70
2022-08-03T20:35:49.664Z,3.50
2022-08-03T20:38:18.829Z,3.60
2022-08-03T20:40:48.366Z,4.15
2022-08-03T20:43:17.018Z,3.65
2022-08-03T20:45:59.073Z,4.80
2022-08-03T20:48:29.878Z,4.07
2022-08-03T20:50:59.643Z,4.00
2022-08-03T20:53:57.053Z,3.70
2022-08-03T20:56:16.114Z,3.33
2022-08-03T20:58:50.506Z,3.70
2022-08-03T21:01:27.881Z,3.70
2022-08-03T21:04:09.264Z,3.85
2022-08-03T21:06:45.745Z,4.47
2022-08-03T21:09:33.507Z,3.78
2022-08-03T21:12:18.480Z,4.10
2022-08-03T21:14:57.432Z,4.43
2022-08-03T21:17:40.077Z,4.28
2022-08-03T21:20:11.735Z,4.82
2022-08-03T21:22:47.045Z,5.32
2022-08-03T21:25:16.400Z,4.90
2022-08-03T21:27:44.045Z,4.40
2022-08-03T21:30:12.528Z,4.95
2022-08-03T21:32:43.250Z,4.35
2022-08-03T21:35:13.325Z,5.20
2022-08-03T21:37:43.171Z,5.25
2022-08-03T21:40:13.932Z,4.97
2022-08-03T21:42:45.340Z,4.80
2022-08-03T21:45:17.443Z,5.70
2022-08-03T21:47:47.238Z,4.60
2022-08-03T21:50:15.802Z,5.10
2022-08-03T21:52:48.652Z,5.10
2022-08-03T21:55:18.339Z,5.28
2022-08-03T21:57:53.555Z,5.65
2022-08-03T22:00:23.184Z,5.50
2022-08-03T22:02:58.200Z,4.90
2022-08-03T22:05:42.887Z,5.10
2022-08-03T22:08:13.811Z,5.05
2022-08-03T22:10:45.488Z,5.22
2022-08-03T22:13:19.482Z,4.97
2022-08-03T22:16:04.539Z,5.20
2022-08-03T22:18:32.282Z,4.82
2022-08-03T22:21:00.819Z,5.57
2022-08-03T22:23:28.345Z,5.63
2022-08-03T22:25:59.685Z,6.75
2022-08-03T22:28:30.378Z,5.32
2022-08-03T22:31:00.075Z,5.90
2022-08-03T22:33:53.335Z,5.72
2022-08-03T22:36:24.206Z,5.85
2022-08-03T22:38:53.167Z,6.82
2022-08-03T22:41:21.393Z,5.95
2022-08-03T22:43:49.920Z,5.10
2022-08-03T22:46:21.962Z,5.05
2022-08-03T22:48:51.052Z,5.13
2022-08-03T22:51:21.795Z,5.03
2022-08-03T22:53:50.131Z,5.30
2022-08-03T22:56:17.841Z,5.35
2022-08-03T22:58:45.341Z,5.05
2022-08-03T23:01:21.716Z,4.90
2022-08-03T23:04:02.322Z,5.32
2022-08-03T23:06:42.647Z,4.60
2022-08-03T23:09:13.493Z,4.72
2022-08-03T23:11:45.608Z,4.82
2022-08-03T23:14:18.944Z,4.95
2022-08-03T23:16:50.190Z,4.63
2022-08-03T23:19:25.497Z,5.00
2022-08-03T23:22:02.527Z,4.82
2022-08-03T23:24:36.211Z,5.85
2022-08-03T23:27:09.187Z,5.57
2022-08-03T23:29:42.184Z,6.07
2022-08-03T23:32:10.668Z,5.47
2022-08-03T23:34:59.296Z,5.43
2022-08-03T23:37:27.084Z,5.57
2022-08-03T23:39:57.095Z,5.82
2022-08-03T23:42:26.203Z,5.38
2022-08-03T23:44:59.541Z,5.78
2022-08-03T23:47:46.011Z,5.13
2022-08-03T23:50:15.729Z,5.90
2022-08-03T23:53:08.013Z,5.80
2022-08-03T23:56:14.600Z,5.82
2022-08-03T23:59:14.018Z,5.43
